Time;durP1;ratioP1;P1;durP2;ratioP2;P2;SDS_P1;SDS_P2;PMS_P1;PMS_P2;Temp;Humidity;BMP_temperature;BMP_pressure;BME280_temperature;BME280_humidity;BME280_pressure;Samples;Min_cycle;Max_cycle;Signal;HPM_P1;HPM_P2
2021/05/12 00:00:43;;;;;;;9.35;8.35;;;;;;;15.02;78.58;99586.84;10238281;28;20457;-61
2021/05/12 00:05:44;;;;;;;8.90;8.02;;;;;;;15.03;78.87;99583.16;10241759;28;20054;-61
2021/05/12 00:10:46;;;;;;;8.73;7.82;;;;;;;15.02;78.10;99581.50;10241295;28;20059;-61
2021/05/12 00:15:47;;;;;;;9.32;8.13;;;;;;;15.06;78.62;99577.47;10237803;28;20066;-61
2021/05/12 00:20:50;;;;;;;9.35;8.45;;;;;;;15.05;78.77;99570.44;10239185;28;20110;-60
2021/05/12 00:25:51;;;;;;;8.63;7.93;;;;;;;15.04;78.34;99571.41;10236788;28;20142;-61
2021/05/12 00:30:53;;;;;;;8.95;8.15;;;;;;;14.99;78.38;99565.75;10239313;28;20054;-61
2021/05/12 00:35:55;;;;;;;9.10;8.27;;;;;;;14.99;77.81;99576.47;10239324;28;20050;-61
2021/05/12 00:40:56;;;;;;;8.70;7.93;;;;;;;14.97;76.78;99582.00;10239211;28;20380;-62
2021/05/12 00:45:58;;;;;;;8.43;7.68;;;;;;;14.88;76.40;99580.34;10236539;28;20059;-59
2021/05/12 00:51:00;;;;;;;9.13;8.25;;;;;;;14.73;76.03;99561.41;10236996;28;20054;-61
2021/05/12 00:56:02;;;;;;;8.05;7.40;;;;;;;14.66;76.65;99573.78;10241581;28;20141;-61
2021/05/12 01:01:04;;;;;;;8.90;8.07;;;;;;;14.69;76.72;99576.13;10245618;28;20071;-60
2021/05/12 01:06:21;;;;;;;8.32;7.22;;;;;;;14.70;76.21;99587.66;10242326;28;20075;-61
2021/05/12 01:11:27;;;;;;;6.95;6.35;;;;;;;14.73;75.55;99587.38;10243682;28;20078;-61
2021/05/12 01:16:28;;;;;;;8.97;6.50;;;;;;;14.60;75.05;99587.81;10248657;28;20067;-61
2021/05/12 01:21:30;;;;;;;6.63;6.13;;;;;;;14.57;75.86;99591.66;10251565;28;20058;-62
2021/05/12 01:26:32;;;;;;;6.65;5.28;;;;;;;14.60;76.12;99591.31;10248058;28;20055;-62
2021/05/12 01:31:39;;;;;;;7.00;6.33;;;;;;;14.58;75.40;99589.84;10249716;28;20149;-61
2021/05/12 01:36:41;;;;;;;6.78;6.10;;;;;;;14.48;75.71;99588.13;10251215;28;20154;-61
2021/05/12 01:41:42;;;;;;;7.95;5.82;;;;;;;14.47;75.15;99586.47;10247046;28;20047;-61
2021/05/12 01:46:46;;;;;;;6.75;5.35;;;;;;;14.39;74.88;99594.47;10250573;28;20054;-61
2021/05/12 01:51:48;;;;;;;7.10;5.65;;;;;;;14.33;75.55;99600.47;10240208;28;20059;-61
2021/05/12 01:56:50;;;;;;;6.45;4.95;;;;;;;14.41;74.82;99594.31;10242942;28;20047;-61
2021/05/12 02:01:53;;;;;;;5.60;5.05;;;;;;;14.36;75.58;99600.16;10239000;28;20093;-61
2021/05/12 02:06:54;;;;;;;5.57;3.95;;;;;;;14.38;76.15;99606.19;10237464;28;20066;-61
2021/05/12 02:11:56;;;;;;;3.72;3.28;;;;;;;14.44;76.45;99607.38;10237437;28;20047;-61
2021/05/12 02:16:58;;;;;;;3.97;2.78;;;;;;;14.21;77.24;99613.34;10246086;28;20051;-62
2021/05/12 02:22:03;;;;;;;6.40;2.95;;;;;;;14.27;76.81;99615.34;10244498;28;22047;-62
2021/05/12 02:27:05;;;;;;;3.17;2.50;;;;;;;14.22;76.20;99600.81;10243475;28;20069;-61
2021/05/12 02:32:07;;;;;;;5.32;2.85;;;;;;;14.23;76.26;99615.84;10243098;28;20051;-61
2021/05/12 02:37:08;;;;;;;3.35;2.45;;;;;;;14.08;76.89;99605.78;10244741;28;20047;-61
2021/05/12 02:42:10;;;;;;;6.35;3.08;;;;;;;14.03;76.83;99608.09;10237995;28;20567;-59
2021/05/12 02:47:11;;;;;;;4.43;2.58;;;;;;;14.11;77.34;99609.94;10232028;28;20051;-63
2021/05/12 02:52:13;;;;;;;4.10;2.35;;;;;;;14.07;76.38;99609.44;10241961;28;20652;-60
2021/05/12 02:57:14;;;;;;;5.45;2.28;;;;;;;14.16;77.61;99613.00;10254709;28;20468;-60
2021/05/12 03:02:16;;;;;;;4.25;2.17;;;;;;;14.12;76.25;99617.00;10243426;28;20055;-61
2021/05/12 03:07:17;;;;;;;3.80;2.20;;;;;;;14.01;76.74;99604.75;10240549;28;20130;-61
2021/05/12 03:12:19;;;;;;;4.05;2.50;;;;;;;14.04;75.91;99609.78;10243957;28;20050;-60
2021/05/12 03:17:20;;;;;;;3.42;2.15;;;;;;;14.10;76.50;99625.19;10243749;28;20117;-60
2021/05/12 03:22:24;;;;;;;2.65;2.00;;;;;;;14.09;75.54;99623.50;10241087;28;20066;-63
2021/05/12 03:27:26;;;;;;;4.45;2.58;;;;;;;14.15;75.51;99616.66;10251546;28;20401;-61
2021/05/12 03:32:27;;;;;;;4.97;2.58;;;;;;;14.15;75.50;99620.16;10247882;28;20510;-60
2021/05/12 03:37:29;;;;;;;3.15;2.60;;;;;;;14.19;75.64;99612.66;10243474;28;20046;-60
2021/05/12 03:42:31;;;;;;;3.85;2.10;;;;;;;14.17;75.55;99611.16;10247649;28;20624;-60
2021/05/12 03:47:32;;;;;;;3.33;2.55;;;;;;;14.09;75.34;99623.50;10241441;28;20105;-61
2021/05/12 03:52:34;;;;;;;5.20;2.55;;;;;;;14.03;74.56;99618.78;10235893;28;20348;-60
2021/05/12 03:57:36;;;;;;;5.40;3.00;;;;;;;14.13;74.53;99627.53;10244268;28;20055;-60
2021/05/12 04:02:39;;;;;;;3.03;2.30;;;;;;;14.18;74.95;99632.41;10237854;28;20051;-60
2021/05/12 04:07:41;;;;;;;4.37;2.87;;;;;;;14.11;74.04;99637.56;10232211;28;20051;-60
2021/05/12 04:12:43;;;;;;;4.30;3.08;;;;;;;14.10;75.16;99649.25;10238790;28;20051;-60
2021/05/12 04:17:44;;;;;;;4.30;3.30;;;;;;;14.20;73.98;99648.28;10242526;28;20079;-61
2021/05/12 04:22:47;;;;;;;4.43;3.42;;;;;;;14.19;74.68;99649.31;10241371;28;20652;-61
2021/05/12 04:27:49;;;;;;;5.78;3.83;;;;;;;13.94;74.92;99654.53;10240084;28;20126;-60
2021/05/12 04:32:50;;;;;;;7.10;4.03;;;;;;;13.97;74.94;99656.91;10236152;28;20055;-61
2021/05/12 04:37:53;;;;;;;5.00;4.25;;;;;;;14.00;75.36;99666.44;10237911;28;20054;-60
2021/05/12 04:42:54;;;;;;;5.55;4.97;;;;;;;14.07;75.68;99668.31;10237447;28;20058;-60
2021/05/12 04:47:56;;;;;;;8.13;5.70;;;;;;;14.14;75.28;99652.44;10236408;28;20093;-60
2021/05/12 04:52:59;;;;;;;9.13;7.03;;;;;;;14.18;74.98;99659.16;10233473;28;20448;-59
2021/05/12 04:58:01;;;;;;;8.10;7.30;;;;;;;14.15;74.06;99681.72;10234644;28;20477;-61
2021/05/12 05:03:06;;;;;;;7.25;6.57;;;;;;;14.20;74.26;99683.09;10228460;28;20078;-64
2021/05/12 05:08:07;;;;;;;12.85;8.43;;;;;;;13.87;74.30;99682.94;10221293;28;20850;-61
2021/05/12 05:13:09;;;;;;;13.35;8.45;;;;;;;13.90;75.04;99687.97;10236799;28;20062;-61
2021/05/12 05:18:10;;;;;;;10.05;8.57;;;;;;;14.03;75.01;99676.84;10237490;28;20100;-60
2021/05/12 05:23:12;;;;;;;10.88;7.85;;;;;;;14.17;74.35;99680.72;10241482;28;20051;-60
2021/05/12 05:28:13;;;;;;;10.35;8.45;;;;;;;14.28;73.54;99675.09;10239057;28;20109;-62
2021/05/12 05:33:14;;;;;;;9.88;8.93;;;;;;;14.28;73.71;99680.47;10239665;28;20075;-61
2021/05/12 05:38:16;;;;;;;9.20;7.43;;;;;;;14.25;72.89;99684.28;10233869;28;20378;-60
2021/05/12 05:43:18;;;;;;;10.25;9.13;;;;;;;14.40;72.97;99689.03;10228196;28;20082;-60
2021/05/12 05:48:19;;;;;;;11.23;9.18;;;;;;;14.36;71.72;99693.84;10238468;28;20055;-61
2021/05/12 05:53:21;;;;;;;8.90;7.82;;;;;;;14.47;72.64;99695.41;10239173;28;20066;-60
2021/05/12 05:58:23;;;;;;;12.43;8.98;;;;;;;14.52;72.78;99694.91;10238197;28;20046;-61
2021/05/12 06:03:24;;;;;;;8.07;7.30;;;;;;;14.54;71.49;99687.56;10247552;28;20480;-61
2021/05/12 06:08:25;;;;;;;10.50;8.43;;;;;;;14.49;71.76;99688.88;10251902;28;20046;-61
2021/05/12 06:13:27;;;;;;;8.27;7.43;;;;;;;14.47;71.33;99696.25;10245994;28;20062;-61
2021/05/12 06:18:29;;;;;;;11.75;7.38;;;;;;;14.47;71.85;99698.94;10245282;28;20094;-62
2021/05/12 06:23:31;;;;;;;9.57;8.57;;;;;;;14.57;71.43;99711.34;10240694;28;20469;-61
2021/05/12 06:28:33;;;;;;;10.65;8.32;;;;;;;14.63;70.26;99726.78;10238039;28;20137;-61
2021/05/12 06:33:35;;;;;;;10.65;8.48;;;;;;;14.61;69.72;99742.19;10245325;28;20063;-62
2021/05/12 06:38:37;;;;;;;9.90;8.35;;;;;;;14.49;70.47;99753.16;10242764;28;20057;-61
2021/05/12 06:43:39;;;;;;;9.13;7.93;;;;;;;14.59;70.07;99752.19;10236202;28;20447;-61
2021/05/12 06:48:40;;;;;;;9.15;7.47;;;;;;;14.77;69.92;99742.25;10236328;28;20567;-62
2021/05/12 06:53:42;;;;;;;7.35;6.45;;;;;;;14.91;69.21;99734.59;10243699;28;20464;-62
2021/05/12 06:58:43;;;;;;;8.75;7.20;;;;;;;15.12;68.15;99726.91;10244565;28;21145;-62
2021/05/12 07:03:45;;;;;;;9.32;6.50;;;;;;;15.28;68.01;99730.59;10241120;28;20113;-60
2021/05/12 07:08:50;;;;;;;7.20;6.13;;;;;;;15.37;66.62;99725.06;10250366;28;20061;-62
2021/05/12 07:13:52;;;;;;;8.02;6.30;;;;;;;15.42;65.53;99727.25;10236775;28;20070;-62
2021/05/12 07:18:54;;;;;;;8.20;6.32;;;;;;;15.56;66.29;99713.16;10243830;28;20050;-65
2021/05/12 07:23:56;;;;;;;8.90;5.53;;;;;;;15.75;64.57;99721.88;10241033;28;20705;-61
2021/05/12 07:28:58;;;;;;;8.25;6.50;;;;;;;15.37;63.88;99718.84;10243694;28;20074;-61
2021/05/12 07:33:59;;;;;;;6.85;5.47;;;;;;;15.41;65.19;99724.75;10244778;28;20055;-61
2021/05/12 07:39:01;;;;;;;8.02;5.47;;;;;;;15.80;64.13;99719.53;10246035;28;20058;-61
2021/05/12 07:44:04;;;;;;;7.00;5.47;;;;;;;15.84;62.49;99720.88;10242929;28;20070;-61
2021/05/12 07:49:05;;;;;;;7.15;5.03;;;;;;;16.05;61.77;99720.31;10243182;28;20101;-62
2021/05/12 07:54:07;;;;;;;6.55;5.13;;;;;;;16.21;61.28;99716.75;10239646;28;20066;-62
2021/05/12 07:59:08;;;;;;;5.47;4.63;;;;;;;16.50;60.93;99701.00;10239518;28;20062;-62
2021/05/12 08:04:10;;;;;;;5.70;4.35;;;;;;;16.74;59.69;99710.81;10242609;28;20664;-61
2021/05/12 08:09:11;;;;;;;7.80;4.43;;;;;;;16.90;58.40;99716.09;10238668;28;20133;-61
2021/05/12 08:14:13;;;;;;;4.85;3.80;;;;;;;17.12;56.24;99718.97;10240821;28;22042;-61
2021/05/12 08:19:14;;;;;;;4.05;3.58;;;;;;;17.21;55.31;99720.59;10241217;28;20047;-61
2021/05/12 08:24:16;;;;;;;6.05;3.42;;;;;;;16.92;53.98;99719.44;10243403;28;20050;-62
2021/05/12 08:29:18;;;;;;;5.38;3.42;;;;;;;16.80;54.38;99723.53;10238157;28;20124;-62
2021/05/12 08:34:19;;;;;;;8.20;3.08;;;;;;;16.98;53.77;99717.03;10241557;28;20062;-61
2021/05/12 08:39:21;;;;;;;5.15;3.08;;;;;;;17.02;54.50;99723.75;10240884;28;20481;-61
2021/05/12 08:44:22;;;;;;;4.13;3.30;;;;;;;17.11;54.76;99722.66;10236138;28;20128;-61
2021/05/12 08:49:25;;;;;;;4.95;3.15;;;;;;;17.26;53.02;99720.03;10241637;28;20059;-61
2021/05/12 08:54:29;;;;;;;4.93;3.00;;;;;;;17.22;51.81;99711.50;10236274;28;20082;-61
2021/05/12 08:59:30;;;;;;;5.53;2.95;;;;;;;17.16;52.50;99706.00;10244549;28;20080;-61
2021/05/12 09:04:33;;;;;;;4.75;2.42;;;;;;;17.45;51.83;99707.97;10239376;28;20058;-61
2021/05/12 09:09:35;;;;;;;6.05;3.22;;;;;;;17.65;50.33;99714.50;10241396;28;20065;-61
2021/05/12 09:14:38;;;;;;;3.97;3.05;;;;;;;17.97;51.44;99719.75;10233480;28;20046;-62
2021/05/12 09:19:39;;;;;;;3.80;2.95;;;;;;;18.35;50.35;99714.28;10236100;28;20157;-61
2021/05/12 09:24:41;;;;;;;3.88;2.60;;;;;;;18.25;49.45;99711.03;10239547;28;20592;-61
2021/05/12 09:29:45;;;;;;;5.28;2.75;;;;;;;18.37;49.68;99712.22;10231498;28;20133;-62
2021/05/12 09:34:51;;;;;;;;;;;;;;;18.15;49.77;99706.78;10243155;28;20150;-62
2021/05/12 09:39:53;;;;;;;3.83;2.60;;;;;;;18.02;49.01;99710.09;10245654;28;19953;-62
2021/05/12 09:45:21;;;;;;;6.22;2.95;;;;;;;18.29;49.23;99697.00;10240035;28;20119;-67
2021/05/12 09:50:40;;;;;;;4.50;2.60;;;;;;;18.77;48.34;99695.72;10250060;28;20058;-62
2021/05/12 09:55:45;;;;;;;4.20;2.30;;;;;;;18.63;48.71;99703.66;10245484;28;20408;-62
2021/05/12 10:00:49;;;;;;;2.90;2.33;;;;;;;18.88;48.68;99692.53;10241176;28;20058;-62
2021/05/12 10:06:01;;;;;;;4.20;2.20;;;;;;;18.91;46.75;99697.53;10240214;28;20054;-62
2021/05/12 10:11:05;;;;;;;4.72;2.38;;;;;;;18.86;45.81;99700.00;10237180;28;20058;-61
2021/05/12 10:16:10;;;;;;;5.68;1.85;;;;;;;19.26;46.44;99700.38;10241116;28;20596;-62
2021/05/12 10:21:12;;;;;;;4.38;1.58;;;;;;;19.56;44.52;99705.59;10245185;28;20154;-61
2021/05/12 10:26:15;;;;;;;2.25;1.40;;;;;;;19.98;42.91;99706.53;10243705;28;20058;-62
2021/05/12 10:31:16;;;;;;;3.15;1.58;;;;;;;20.04;40.38;99705.78;10243342;28;20054;-62
2021/05/12 10:36:20;;;;;;;2.45;1.58;;;;;;;20.32;39.03;99694.06;10250696;28;20456;-62
2021/05/12 10:41:48;;;;;;;3.72;1.55;;;;;;;20.92;38.60;99694.28;10248891;28;20125;-62
2021/05/12 10:47:06;;;;;;;3.05;1.52;;;;;;;21.60;36.46;99687.06;10243010;28;20373;-63
2021/05/12 10:52:09;;;;;;;3.13;1.60;;;;;;;22.23;36.02;99691.94;10247027;28;20050;-62
2021/05/12 10:57:48;;;;;;;6.20;2.85;;;;;;;22.65;36.17;99676.16;10245805;28;20513;-61
2021/05/12 11:02:50;;;;;;;4.55;1.92;;;;;;;22.83;34.31;99667.28;10247261;28;20583;-62
2021/05/12 11:08:19;;;;;;;2.55;1.30;;;;;;;22.24;34.67;99671.94;10246451;28;20172;-62
2021/05/12 11:13:23;;;;;;;2.92;1.65;;;;;;;21.57;37.64;99674.78;10245176;28;20082;-62
2021/05/12 11:18:38;;;;;;;4.68;1.90;;;;;;;20.74;38.72;99665.13;10244075;28;20054;-62
2021/05/12 11:24:06;;;;;;;2.78;1.45;;;;;;;19.89;39.31;99661.81;10241007;28;20080;-62
2021/05/12 11:34:35;;;;;;;3.70;1.95;;;;;;;19.13;41.76;99654.41;10243566;28;20057;-62
2021/05/12 11:39:37;;;;;;;5.18;1.65;;;;;;;18.67;41.94;99648.31;10236015;28;20537;-62
2021/05/12 11:44:38;;;;;;;4.40;2.00;;;;;;;18.33;44.17;99644.44;10233204;28;20533;-62
2021/05/12 11:49:40;;;;;;;3.28;1.50;;;;;;;18.41;44.01;99640.78;10239805;28;20082;-62
2021/05/12 11:54:41;;;;;;;3.17;1.35;;;;;;;18.37;44.05;99637.63;10235684;28;20054;-62
2021/05/12 11:59:43;;;;;;;3.47;2.55;;;;;;;18.33;44.90;99639.03;10244290;28;20822;-62
2021/05/12 12:09:46;;;;;;;3.42;1.58;;;;;;;18.16;44.71;99630.31;10237820;28;20785;-62
2021/05/12 12:14:47;;;;;;;3.20;1.58;;;;;;;18.07;45.91;99625.22;10240260;28;20053;-62
2021/05/12 12:19:49;;;;;;;4.35;1.65;;;;;;;18.08;45.80;99632.31;10238950;28;20046;-61
2021/05/12 12:24:50;;;;;;;4.40;1.70;;;;;;;18.07;46.68;99636.00;10235810;28;20158;-62
2021/05/12 12:29:52;;;;;;;5.82;1.80;;;;;;;17.98;48.36;99617.25;10238908;28;20561;-61
2021/05/12 12:34:59;;;;;;;4.45;1.77;;;;;;;17.98;48.15;99625.31;10235220;28;20120;-62
2021/05/12 12:40:09;;;;;;;4.03;1.75;;;;;;;17.91;47.45;99632.50;10242288;28;20047;-62
2021/05/12 12:45:13;;;;;;;3.45;1.90;;;;;;;17.82;47.87;99630.91;10239842;28;20113;-62
2021/05/12 12:50:17;;;;;;;4.68;1.23;;;;;;;17.80;49.87;99630.22;10238296;28;20568;-62
2021/05/12 12:55:24;;;;;;;5.72;2.05;;;;;;;17.76;48.80;99623.53;10243342;28;20526;-62
2021/05/12 13:00:30;;;;;;;4.93;2.05;;;;;;;17.76;49.47;99623.53;10244602;28;20623;-62
2021/05/12 13:05:40;;;;;;;4.18;2.25;;;;;;;17.82;49.95;99620.13;10247045;28;20058;-62
2021/05/12 13:10:43;;;;;;;4.05;2.10;;;;;;;18.02;50.53;99629.31;10248654;28;20484;-62
2021/05/12 13:15:45;;;;;;;7.72;3.83;;;;;;;18.18;51.45;99622.91;10243844;28;20090;-62
2021/05/12 13:20:47;;;;;;;3.83;2.30;;;;;;;18.02;51.12;99610.47;10239459;28;20248;-61
2021/05/12 13:25:51;;;;;;;4.30;2.30;;;;;;;18.06;51.77;99627.09;10240690;28;20101;-62
2021/05/12 13:30:55;;;;;;;4.70;2.70;;;;;;;17.96;52.18;99624.69;10243694;28;20205;-62
2021/05/12 13:35:58;;;;;;;5.88;2.58;;;;;;;17.89;52.40;99629.13;10250320;28;20102;-61
2021/05/12 13:40:59;;;;;;;5.40;3.05;;;;;;;17.73;51.81;99629.28;10246079;28;20050;-62
2021/05/12 13:46:01;;;;;;;4.95;2.50;;;;;;;17.61;52.94;99629.78;10244000;28;20058;-62
2021/05/12 13:51:04;;;;;;;3.63;2.97;;;;;;;17.57;55.12;99631.16;10244257;28;20188;-62
2021/05/12 13:56:26;;;;;;;5.40;3.00;;;;;;;17.55;53.09;99632.34;10244723;28;20423;-62
2021/05/12 14:06:35;;;;;;;5.50;2.72;;;;;;;17.52;56.60;99638.94;10235585;28;20067;-61
2021/05/12 14:11:45;;;;;;;4.45;2.92;;;;;;;17.56;57.46;99628.66;10242784;28;20047;-62
2021/05/12 14:21:56;;;;;;;5.10;2.85;;;;;;;17.87;56.83;99633.84;10243419;28;20074;-62
2021/05/12 14:27:04;;;;;;;5.07;3.10;;;;;;;17.89;56.24;99634.53;10239525;28;20483;-61
2021/05/12 14:32:06;;;;;;;5.25;3.20;;;;;;;18.30;55.36;99620.56;10242792;28;20734;-62
2021/05/12 14:37:09;;;;;;;6.00;3.13;;;;;;;18.48;55.26;99632.75;10250167;28;21913;-62
2021/05/12 14:42:11;;;;;;;5.53;2.80;;;;;;;18.28;56.32;99627.16;10247705;28;20141;-62
2021/05/12 14:47:13;;;;;;;6.22;2.70;;;;;;;18.15;56.60;99633.19;10242631;28;20097;-62
2021/05/12 14:57:50;;;;;;;5.85;2.80;;;;;;;18.01;55.82;99638.44;10246773;28;20104;-62
2021/05/12 15:07:53;;;;;;;8.55;2.28;;;;;;;17.92;53.70;99627.94;10245629;28;20137;-62
2021/05/12 15:12:54;;;;;;;5.70;2.55;;;;;;;17.87;52.94;99617.69;10242894;28;20054;-62
2021/05/12 15:17:56;;;;;;;3.92;2.30;;;;;;;17.79;52.23;99615.09;10245913;28;20137;-60
2021/05/12 15:22:58;;;;;;;3.78;2.85;;;;;;;17.67;52.01;99610.19;10245178;28;20435;-61
2021/05/12 15:28:00;;;;;;;4.38;2.58;;;;;;;17.68;52.77;99616.41;10240663;28;20146;-61
2021/05/12 15:33:02;;;;;;;5.88;2.88;;;;;;;17.70;53.61;99597.38;10242350;28;20078;-59
2021/05/12 15:38:19;;;;;;;5.90;2.95;;;;;;;17.62;53.51;99601.81;10246639;28;20168;-61
2021/05/12 15:43:21;;;;;;;5.85;2.50;;;;;;;17.60;53.72;99608.44;10230320;28;20811;-63
2021/05/12 15:48:23;;;;;;;5.53;2.92;;;;;;;17.61;52.12;99600.16;10238390;28;20137;-63
2021/05/12 15:53:44;;;;;;;5.70;3.58;;;;;;;17.59;50.39;99596.81;10238875;28;20062;-62
2021/05/12 15:58:46;;;;;;;5.50;2.65;;;;;;;17.66;50.61;99595.06;10237574;28;20058;-61
2021/05/12 16:03:47;;;;;;;6.57;3.15;;;;;;;17.64;51.43;99597.09;10242417;28;20097;-63
2021/05/12 16:08:50;;;;;;;4.03;2.40;;;;;;;17.58;50.49;99594.31;10235857;28;20051;-61
2021/05/12 16:13:52;;;;;;;4.50;2.40;;;;;;;17.46;51.42;99591.25;10246076;28;20129;-58
2021/05/12 16:18:53;;;;;;;3.25;2.47;;;;;;;17.46;51.30;99593.94;10254674;28;20043;-60
2021/05/12 16:23:55;;;;;;;5.88;3.40;;;;;;;17.40;52.12;99591.97;10255459;28;20739;-61
2021/05/12 16:28:56;;;;;;;4.90;3.15;;;;;;;17.28;51.99;99589.75;10245782;28;20074;-58
2021/05/12 16:33:58;;;;;;;4.10;2.90;;;;;;;17.18;51.74;99591.03;10251463;28;20046;-61
2021/05/12 16:38:59;;;;;;;5.63;2.78;;;;;;;17.16;52.83;99604.66;10247378;28;20120;-63
2021/05/12 16:44:02;;;;;;;5.00;2.70;;;;;;;17.08;52.41;99602.88;10249893;28;20193;-59
2021/05/12 16:49:04;;;;;;;3.50;3.20;;;;;;;16.93;53.50;99608.22;10251365;28;20096;-59
2021/05/12 16:54:07;;;;;;;3.63;2.67;;;;;;;16.81;54.59;99614.97;10248100;28;20050;-63
2021/05/12 16:59:09;;;;;;;5.43;3.42;;;;;;;16.64;55.80;99619.66;10243522;28;20146;-63
2021/05/12 17:04:10;;;;;;;3.03;2.55;;;;;;;16.52;55.74;99631.81;10244287;28;20058;-64
2021/05/12 17:09:14;;;;;;;10.27;4.25;;;;;;;16.35;59.50;99644.50;10227992;28;20061;-63
2021/05/12 17:14:16;;;;;;;6.03;4.30;;;;;;;15.56;68.61;99639.91;10231601;28;20579;-62
2021/05/12 17:19:17;;;;;;;5.38;4.20;;;;;;;15.58;68.80;99647.78;10232346;28;20120;-60
2021/05/12 17:24:19;;;;;;;6.25;4.35;;;;;;;15.17;69.43;99657.53;10239175;28;20185;-60
2021/05/12 17:29:20;;;;;;;6.70;5.05;;;;;;;15.28;71.06;99648.34;10234229;28;20496;-61
2021/05/12 17:34:22;;;;;;;7.85;4.65;;;;;;;15.41;72.44;99645.13;10232516;28;20146;-62
2021/05/12 17:39:23;;;;;;;6.88;4.88;;;;;;;15.49;73.77;99658.53;10234237;28;20114;-61
2021/05/12 17:44:25;;;;;;;4.72;4.40;;;;;;;15.57;72.10;99649.63;10231941;28;20197;-60
2021/05/12 17:49:28;;;;;;;6.78;5.22;;;;;;;15.56;72.58;99647.94;10227905;28;20171;-60
2021/05/12 17:54:30;;;;;;;55.80;38.97;;;;;;;15.48;71.83;99643.44;10242712;28;20113;-60
2021/05/12 17:59:31;;;;;;;27.48;13.68;;;;;;;15.37;72.72;99639.25;10242226;28;20063;-60
2021/05/12 18:04:32;;;;;;;7.32;5.93;;;;;;;15.36;72.86;99631.38;10232390;28;20110;-62
2021/05/12 18:09:36;;;;;;;8.02;5.93;;;;;;;15.34;74.06;99631.56;10233300;28;20066;-61
2021/05/12 18:19:49;;;;;;;7.15;5.95;;;;;;;15.32;73.50;99625.50;10237075;28;20053;-59
2021/05/12 18:24:51;;;;;;;5.75;4.90;;;;;;;15.12;72.90;99617.00;10234922;28;20106;-60
2021/05/12 18:29:53;;;;;;;5.72;3.65;;;;;;;15.25;72.96;99623.69;10236015;28;20047;-59
2021/05/12 18:35:07;;;;;;;5.30;4.80;;;;;;;15.25;74.84;99629.88;10232148;28;20047;-63
2021/05/12 18:40:09;;;;;;;;;;;;;;;15.26;74.50;99631.56;10233068;28;20067;-60
2021/05/12 18:45:18;;;;;;;5.07;3.72;;;;;;;15.14;73.90;99620.34;10233035;28;20004;-62
2021/05/12 18:50:20;;;;;;;5.18;4.63;;;;;;;15.20;75.63;99621.50;10240896;28;20081;-62
2021/05/12 18:55:22;;;;;;;4.25;3.85;;;;;;;15.05;75.58;99629.38;10234622;28;20055;-61
2021/05/12 19:00:24;;;;;;;3.85;3.40;;;;;;;15.02;73.63;99614.47;10241268;28;20131;-61
2021/05/12 19:05:35;;;;;;;5.18;3.70;;;;;;;14.88;74.25;99616.97;10241553;28;20063;-61
2021/05/12 19:16:12;;;;;;;4.88;3.38;;;;;;;14.97;73.83;99621.38;10228842;28;20129;-62
2021/05/12 19:26:37;;;;;;;3.63;3.30;;;;;;;14.88;75.29;99625.88;10222724;28;20054;-61
2021/05/12 19:42:18;;;;;;;4.97;3.17;;;;;;;14.73;75.39;99612.31;10235574;28;20050;-61
2021/05/12 19:47:20;;;;;;;4.20;3.75;;;;;;;14.70;76.31;99626.03;10236865;28;20140;-59
2021/05/12 19:52:22;;;;;;;3.95;3.65;;;;;;;14.76;76.83;99622.69;10230762;28;20047;-61
2021/05/12 20:02:34;;;;;;;4.43;4.00;;;;;;;14.66;77.25;99617.47;10234188;28;20230;-61
2021/05/12 20:07:45;;;;;;;4.57;4.18;;;;;;;14.59;75.99;99620.94;10231869;28;20109;-61
2021/05/12 20:18:21;;;;;;;4.70;4.20;;;;;;;14.45;76.08;99617.91;10193698;28;20121;-61
2021/05/12 20:23:23;;;;;;;6.28;5.55;;;;;;;14.38;75.76;99619.59;10213989;28;20602;-61
2021/05/12 20:28:24;;;;;;;7.32;5.75;;;;;;;14.31;77.99;99626.59;10214451;28;20639;-61
2021/05/12 20:38:46;;;;;;;8.65;7.85;;;;;;;14.15;78.98;99609.47;10222908;28;20050;-61
2021/05/12 20:43:49;;;;;;;8.45;7.65;;;;;;;14.23;79.13;99610.50;10231209;28;20055;-61
2021/05/12 20:48:51;;;;;;;9.10;8.27;;;;;;;14.24;78.66;99601.47;10227771;28;20067;-62
2021/05/12 20:53:53;;;;;;;8.68;7.88;;;;;;;14.24;79.02;99604.97;10231449;28;20465;-60
2021/05/12 20:58:55;;;;;;;8.35;7.25;;;;;;;14.17;78.96;99608.47;10233807;28;20118;-63
2021/05/12 21:03:56;;;;;;;8.10;7.22;;;;;;;14.20;78.94;99608.13;10233914;28;20050;-61
2021/05/12 21:08:58;;;;;;;7.90;7.18;;;;;;;14.13;78.55;99600.75;10236641;28;20054;-61
2021/05/12 21:14:00;;;;;;;9.52;8.00;;;;;;;14.17;78.18;99598.59;10224937;28;20051;-61
2021/05/12 21:19:02;;;;;;;7.40;6.70;;;;;;;14.21;77.66;99593.75;10245587;28;20478;-61
2021/05/12 21:24:04;;;;;;;7.75;7.05;;;;;;;14.18;77.99;99594.09;10240319;28;20083;-61
2021/05/12 21:29:05;;;;;;;8.57;7.65;;;;;;;14.10;78.39;99598.41;10240376;28;20109;-62
2021/05/12 21:34:07;;;;;;;10.68;9.77;;;;;;;14.03;78.53;99586.69;10247937;28;20139;-61
2021/05/12 21:39:09;;;;;;;11.52;10.40;;;;;;;14.04;78.09;99588.38;10242383;28;20038;-61
2021/05/12 21:44:12;;;;;;;10.90;9.50;;;;;;;13.99;77.91;99585.34;10242377;28;20046;-62
2021/05/12 21:49:13;;;;;;;10.43;9.63;;;;;;;13.90;77.97;99564.91;10237606;28;20062;-62
2021/05/12 21:54:15;;;;;;;10.80;9.90;;;;;;;14.03;77.54;99581.31;10246886;28;20059;-63
2021/05/12 21:59:17;;;;;;;10.40;9.50;;;;;;;14.09;76.85;99580.66;10246672;28;20043;-62
2021/05/12 22:04:21;;;;;;;8.85;7.97;;;;;;;14.04;75.53;99566.13;10246460;28;20129;-61
2021/05/12 22:30:21;;;;;;;8.32;7.68;;;;;;;13.77;76.82;99568.88;10240653;28;20059;-63
2021/05/12 22:35:25;;;;;;;7.40;6.80;;;;;;;13.71;76.76;99556.13;10247640;28;20055;-61
2021/05/12 22:40:29;;;;;;;7.45;6.70;;;;;;;13.64;76.32;99548.94;10241793;28;20130;-61
2021/05/12 22:45:30;;;;;;;;;;;;;;;13.61;76.47;99558.09;10248400;28;20480;-63
2021/05/12 22:50:35;;;;;;;7.78;7.03;;;;;;;13.57;76.62;99543.34;10243929;28;19922;-62
2021/05/12 23:00:55;;;;;;;6.82;6.30;;;;;;;13.58;76.83;99539.69;10239729;28;20038;-63
2021/05/12 23:05:57;;;;;;;7.97;7.38;;;;;;;13.49;77.41;99524.63;10242479;28;20046;-63
2021/05/12 23:10:58;;;;;;;8.90;8.10;;;;;;;13.59;77.65;99542.22;10249195;28;20112;-62
2021/05/12 23:16:00;;;;;;;8.15;7.35;;;;;;;13.50;77.87;99531.66;10248887;28;20038;-62
2021/05/12 23:21:02;;;;;;;8.18;7.47;;;;;;;13.52;77.63;99546.50;10247829;28;20077;-62
2021/05/12 23:26:04;;;;;;;8.55;7.78;;;;;;;13.49;77.47;99527.31;10245523;28;20043;-61
2021/05/12 23:31:05;;;;;;;8.75;7.97;;;;;;;13.51;77.60;99528.81;10244054;28;20054;-66
2021/05/12 23:36:07;;;;;;;10.65;9.63;;;;;;;13.58;77.71;99537.03;10239672;28;20069;-62
2021/05/12 23:41:13;;;;;;;9.70;8.70;;;;;;;13.55;78.12;99524.81;10244938;28;20521;-61
2021/05/12 23:46:14;;;;;;;9.10;8.35;;;;;;;13.53;78.50;99532.16;10246171;28;20528;-60
2021/05/12 23:51:17;;;;;;;8.07;7.43;;;;;;;13.54;78.09;99519.63;10243037;28;20154;-64
2021/05/12 23:56:20;;;;;;;9.57;8.77;;;;;;;13.54;77.89;99517.81;10241926;28;20061;-62
